sensor_id;sensor_type;location;lat;lon;timestamp;P1;durP1;ratioP1;P2;durP2;ratioP2
11171;SDS011;5642;50.830;12.082;2023-05-20T00:14:15;2.45;;;1.65;;
11171;SDS011;5642;50.830;12.082;2023-05-20T00:16:45;2.10;;;1.90;;
11171;SDS011;5642;50.830;12.082;2023-05-20T00:19:12;2.40;;;2.20;;
11171;SDS011;5642;50.830;12.082;2023-05-20T00:21:39;2.00;;;1.90;;
11171;SDS011;5642;50.830;12.082;2023-05-20T00:24:05;2.13;;;2.00;;
11171;SDS011;5642;50.830;12.082;2023-05-20T00:26:33;2.10;;;1.90;;
11171;SDS011;5642;50.830;12.082;2023-05-20T00:28:59;2.30;;;2.10;;
11171;SDS011;5642;50.830;12.082;2023-05-20T00:31:26;3.17;;;2.20;;
11171;SDS011;5642;50.830;12.082;2023-05-20T00:33:52;2.30;;;2.10;;
11171;SDS011;5642;50.830;12.082;2023-05-20T00:36:19;3.58;;;2.60;;
11171;SDS011;5642;50.830;12.082;2023-05-20T00:38:46;2.30;;;2.10;;
11171;SDS011;5642;50.830;12.082;2023-05-20T00:41:23;2.75;;;2.38;;
11171;SDS011;5642;50.830;12.082;2023-05-20T00:43:53;3.92;;;2.13;;
11171;SDS011;5642;50.830;12.082;2023-05-20T00:46:20;3.08;;;2.58;;
11171;SDS011;5642;50.830;12.082;2023-05-20T00:48:46;2.67;;;2.47;;
11171;SDS011;5642;50.830;12.082;2023-05-20T00:51:15;3.45;;;2.50;;
11171;SDS011;5642;50.830;12.082;2023-05-20T00:53:42;2.60;;;2.40;;
11171;SDS011;5642;50.830;12.082;2023-05-20T00:56:10;2.92;;;2.63;;
11171;SDS011;5642;50.830;12.082;2023-05-20T00:58:36;2.63;;;2.42;;
11171;SDS011;5642;50.830;12.082;2023-05-20T01:01:04;2.42;;;2.22;;
11171;SDS011;5642;50.830;12.082;2023-05-20T01:03:31;2.67;;;2.47;;
11171;SDS011;5642;50.830;12.082;2023-05-20T01:05:58;2.67;;;2.42;;
11171;SDS011;5642;50.830;12.082;2023-05-20T01:08:30;3.45;;;2.60;;
11171;SDS011;5642;50.830;12.082;2023-05-20T01:11:00;3.00;;;2.70;;
11171;SDS011;5642;50.830;12.082;2023-05-20T02:14:56;3.30;;;3.00;;
11171;SDS011;5642;50.830;12.082;2023-05-20T02:17:24;3.28;;;2.97;;
11171;SDS011;5642;50.830;12.082;2023-05-20T02:19:51;3.60;;;3.30;;
11171;SDS011;5642;50.830;12.082;2023-05-20T02:22:18;3.83;;;3.42;;
11171;SDS011;5642;50.830;12.082;2023-05-20T02:24:45;3.63;;;3.30;;
11171;SDS011;5642;50.830;12.082;2023-05-20T02:27:12;3.70;;;3.33;;
11171;SDS011;5642;50.830;12.082;2023-05-20T02:29:39;4.75;;;3.50;;
11171;SDS011;5642;50.830;12.082;2023-05-20T02:32:07;3.60;;;3.30;;
11171;SDS011;5642;50.830;12.082;2023-05-20T02:34:35;3.65;;;3.35;;
11171;SDS011;5642;50.830;12.082;2023-05-20T02:37:01;4.20;;;3.70;;
11171;SDS011;5642;50.830;12.082;2023-05-20T02:39:28;3.67;;;3.13;;
11171;SDS011;5642;50.830;12.082;2023-05-20T02:41:54;4.20;;;3.80;;
11171;SDS011;5642;50.830;12.082;2023-05-20T02:44:20;4.03;;;3.63;;
11171;SDS011;5642;50.830;12.082;2023-05-20T02:46:47;3.92;;;3.53;;
11171;SDS011;5642;50.830;12.082;2023-05-20T02:49:19;4.03;;;3.63;;
11171;SDS011;5642;50.830;12.082;2023-05-20T02:51:45;3.83;;;3.53;;
11171;SDS011;5642;50.830;12.082;2023-05-20T02:54:11;3.80;;;3.50;;
11171;SDS011;5642;50.830;12.082;2023-05-20T02:56:37;3.83;;;3.50;;
11171;SDS011;5642;50.830;12.082;2023-05-20T02:59:04;3.85;;;3.55;;
11171;SDS011;5642;50.830;12.082;2023-05-20T03:01:31;4.30;;;3.90;;
11171;SDS011;5642;50.830;12.082;2023-05-20T03:04:00;3.63;;;3.33;;
11171;SDS011;5642;50.830;12.082;2023-05-20T03:06:27;4.10;;;3.70;;
11171;SDS011;5642;50.830;12.082;2023-05-20T03:08:55;4.30;;;3.63;;
11171;SDS011;5642;50.830;12.082;2023-05-20T03:11:21;5.10;;;3.70;;
11171;SDS011;5642;50.830;12.082;2023-05-20T03:13:47;4.05;;;3.65;;
11171;SDS011;5642;50.830;12.082;2023-05-20T03:16:13;3.90;;;3.50;;
11171;SDS011;5642;50.830;12.082;2023-05-20T03:18:39;4.00;;;3.60;;
11171;SDS011;5642;50.830;12.082;2023-05-20T03:21:05;4.18;;;3.50;;
11171;SDS011;5642;50.830;12.082;2023-05-20T03:23:38;3.88;;;3.58;;
11171;SDS011;5642;50.830;12.082;2023-05-20T03:26:03;3.53;;;3.22;;
11171;SDS011;5642;50.830;12.082;2023-05-20T03:28:31;3.63;;;3.33;;
11171;SDS011;5642;50.830;12.082;2023-05-20T03:30:57;4.18;;;3.75;;
11171;SDS011;5642;50.830;12.082;2023-05-20T03:33:23;4.40;;;4.00;;
11171;SDS011;5642;50.830;12.082;2023-05-20T03:35:50;4.13;;;3.72;;
11171;SDS011;5642;50.830;12.082;2023-05-20T03:38:17;4.30;;;3.90;;
11171;SDS011;5642;50.830;12.082;2023-05-20T03:40:43;4.38;;;3.97;;
11171;SDS011;5642;50.830;12.082;2023-05-20T03:43:09;4.28;;;3.88;;
11171;SDS011;5642;50.830;12.082;2023-05-20T03:45:35;4.45;;;3.70;;
11171;SDS011;5642;50.830;12.082;2023-05-20T03:48:01;4.72;;;3.75;;
11171;SDS011;5642;50.830;12.082;2023-05-20T03:50:28;4.30;;;3.90;;
11171;SDS011;5642;50.830;12.082;2023-05-20T03:52:55;3.92;;;3.63;;
11171;SDS011;5642;50.830;12.082;2023-05-20T03:55:21;4.20;;;3.80;;
11171;SDS011;5642;50.830;12.082;2023-05-20T03:57:47;5.60;;;4.00;;
11171;SDS011;5642;50.830;12.082;2023-05-20T04:00:16;4.43;;;4.03;;
11171;SDS011;5642;50.830;12.082;2023-05-20T04:02:43;4.47;;;4.07;;
11171;SDS011;5642;50.830;12.082;2023-05-20T04:05:09;4.80;;;4.28;;
11171;SDS011;5642;50.830;12.082;2023-05-20T04:07:36;4.32;;;3.92;;
11171;SDS011;5642;50.830;12.082;2023-05-20T04:10:02;4.63;;;4.07;;
11171;SDS011;5642;50.830;12.082;2023-05-20T04:12:29;4.18;;;3.80;;
11171;SDS011;5642;50.830;12.082;2023-05-20T04:14:59;5.00;;;4.50;;
11171;SDS011;5642;50.830;12.082;2023-05-20T04:17:29;4.13;;;3.72;;
11171;SDS011;5642;50.830;12.082;2023-05-20T04:19:56;4.82;;;4.20;;
11171;SDS011;5642;50.830;12.082;2023-05-20T04:22:22;4.40;;;4.00;;
11171;SDS011;5642;50.830;12.082;2023-05-20T04:24:48;5.18;;;4.55;;
11171;SDS011;5642;50.830;12.082;2023-05-20T04:27:15;4.47;;;4.07;;
11171;SDS011;5642;50.830;12.082;2023-05-20T04:29:41;4.60;;;3.97;;
11171;SDS011;5642;50.830;12.082;2023-05-20T04:32:15;4.68;;;4.22;;
11171;SDS011;5642;50.830;12.082;2023-05-20T04:34:43;4.72;;;4.32;;
11171;SDS011;5642;50.830;12.082;2023-05-20T04:37:09;3.97;;;3.67;;
11171;SDS011;5642;50.830;12.082;2023-05-20T04:39:36;4.65;;;4.25;;
11171;SDS011;5642;50.830;12.082;2023-05-20T04:42:04;5.43;;;4.93;;
11171;SDS011;5642;50.830;12.082;2023-05-20T04:44:30;5.10;;;4.60;;
11171;SDS011;5642;50.830;12.082;2023-05-20T04:46:56;4.65;;;4.22;;
11171;SDS011;5642;50.830;12.082;2023-05-20T04:49:24;4.93;;;4.43;;
11171;SDS011;5642;50.830;12.082;2023-05-20T04:51:56;5.80;;;4.88;;
11171;SDS011;5642;50.830;12.082;2023-05-20T04:54:23;5.45;;;4.50;;
11171;SDS011;5642;50.830;12.082;2023-05-20T04:56:49;5.10;;;4.60;;
11171;SDS011;5642;50.830;12.082;2023-05-20T04:59:15;5.65;;;4.97;;
11171;SDS011;5642;50.830;12.082;2023-05-20T05:01:42;5.50;;;4.65;;
11171;SDS011;5642;50.830;12.082;2023-05-20T05:04:08;5.22;;;4.72;;
11171;SDS011;5642;50.830;12.082;2023-05-20T05:06:34;5.50;;;5.00;;
11171;SDS011;5642;50.830;12.082;2023-05-20T05:09:00;5.40;;;4.90;;
11171;SDS011;5642;50.830;12.082;2023-05-20T05:11:28;5.15;;;4.65;;
11171;SDS011;5642;50.830;12.082;2023-05-20T05:13:54;5.32;;;4.82;;
11171;SDS011;5642;50.830;12.082;2023-05-20T05:16:20;5.97;;;4.90;;
11171;SDS011;5642;50.830;12.082;2023-05-20T05:18:46;5.95;;;5.32;;
11171;SDS011;5642;50.830;12.082;2023-05-20T05:21:13;5.90;;;5.30;;
11171;SDS011;5642;50.830;12.082;2023-05-20T05:23:39;6.35;;;5.03;;
11171;SDS011;5642;50.830;12.082;2023-05-20T05:26:07;6.47;;;5.18;;
11171;SDS011;5642;50.830;12.082;2023-05-20T05:28:33;5.90;;;4.88;;
11171;SDS011;5642;50.830;12.082;2023-05-20T05:30:59;4.75;;;4.35;;
11171;SDS011;5642;50.830;12.082;2023-05-20T05:33:26;5.40;;;4.88;;
11171;SDS011;5642;50.830;12.082;2023-05-20T05:35:56;5.88;;;4.85;;
11171;SDS011;5642;50.830;12.082;2023-05-20T05:38:23;5.55;;;4.95;;
11171;SDS011;5642;50.830;12.082;2023-05-20T05:40:50;5.75;;;5.15;;
11171;SDS011;5642;50.830;12.082;2023-05-20T05:43:16;5.72;;;5.13;;
11171;SDS011;5642;50.830;12.082;2023-05-20T05:45:42;5.38;;;4.88;;
11171;SDS011;5642;50.830;12.082;2023-05-20T05:48:11;5.07;;;4.57;;
11171;SDS011;5642;50.830;12.082;2023-05-20T05:50:37;5.78;;;4.97;;
11171;SDS011;5642;50.830;12.082;2023-05-20T05:53:03;5.10;;;4.70;;
11171;SDS011;5642;50.830;12.082;2023-05-20T05:55:29;5.25;;;4.45;;
11171;SDS011;5642;50.830;12.082;2023-05-20T05:57:55;4.68;;;4.18;;
11171;SDS011;5642;50.830;12.082;2023-05-20T06:00:21;4.95;;;4.50;;
11171;SDS011;5642;50.830;12.082;2023-05-20T06:02:47;4.65;;;4.25;;
11171;SDS011;5642;50.830;12.082;2023-05-20T06:05:14;5.20;;;4.70;;
11171;SDS011;5642;50.830;12.082;2023-05-20T06:07:40;5.03;;;4.53;;
11171;SDS011;5642;50.830;12.082;2023-05-20T06:10:07;5.18;;;4.70;;
11171;SDS011;5642;50.830;12.082;2023-05-20T06:12:33;5.03;;;4.53;;
11171;SDS011;5642;50.830;12.082;2023-05-20T06:14:59;5.50;;;4.97;;
11171;SDS011;5642;50.830;12.082;2023-05-20T06:17:26;4.85;;;4.45;;
11171;SDS011;5642;50.830;12.082;2023-05-20T06:19:55;5.47;;;4.80;;
11171;SDS011;5642;50.830;12.082;2023-05-20T06:22:24;5.15;;;4.65;;
11171;SDS011;5642;50.830;12.082;2023-05-20T06:24:50;4.80;;;4.40;;
11171;SDS011;5642;50.830;12.082;2023-05-20T06:27:17;5.70;;;5.18;;
11171;SDS011;5642;50.830;12.082;2023-05-20T06:29:43;5.05;;;4.55;;
11171;SDS011;5642;50.830;12.082;2023-05-20T06:32:09;5.50;;;5.00;;
11171;SDS011;5642;50.830;12.082;2023-05-20T06:34:35;5.40;;;4.93;;
11171;SDS011;5642;50.830;12.082;2023-05-20T06:37:02;4.97;;;4.47;;
11171;SDS011;5642;50.830;12.082;2023-05-20T06:39:30;5.00;;;4.50;;
11171;SDS011;5642;50.830;12.082;2023-05-20T06:41:57;4.60;;;4.20;;
11171;SDS011;5642;50.830;12.082;2023-05-20T06:44:23;4.75;;;4.25;;
11171;SDS011;5642;50.830;12.082;2023-05-20T06:46:50;4.20;;;3.90;;
11171;SDS011;5642;50.830;12.082;2023-05-20T06:49:16;5.15;;;4.65;;
11171;SDS011;5642;50.830;12.082;2023-05-20T06:51:42;4.50;;;4.10;;
11171;SDS011;5642;50.830;12.082;2023-05-20T06:54:08;4.85;;;4.35;;
11171;SDS011;5642;50.830;12.082;2023-05-20T06:56:35;4.50;;;4.10;;
11171;SDS011;5642;50.830;12.082;2023-05-20T06:59:02;4.30;;;3.90;;
11171;SDS011;5642;50.830;12.082;2023-05-20T07:01:28;4.70;;;4.20;;
11171;SDS011;5642;50.830;12.082;2023-05-20T07:03:54;4.90;;;4.40;;
11171;SDS011;5642;50.830;12.082;2023-05-20T07:06:20;4.60;;;4.20;;
11171;SDS011;5642;50.830;12.082;2023-05-20T07:09:04;5.00;;;4.50;;
11171;SDS011;5642;50.830;12.082;2023-05-20T07:11:36;4.70;;;4.30;;
11171;SDS011;5642;50.830;12.082;2023-05-20T07:38:34;4.80;;;4.35;;
11171;SDS011;5642;50.830;12.082;2023-05-20T07:41:02;4.90;;;4.30;;
11171;SDS011;5642;50.830;12.082;2023-05-20T07:43:29;4.45;;;4.05;;
11171;SDS011;5642;50.830;12.082;2023-05-20T07:45:56;4.40;;;4.00;;
11171;SDS011;5642;50.830;12.082;2023-05-20T07:48:23;5.00;;;4.50;;
11171;SDS011;5642;50.830;12.082;2023-05-20T07:50:49;4.60;;;4.18;;
11171;SDS011;5642;50.830;12.082;2023-05-20T07:53:15;5.05;;;3.75;;
11171;SDS011;5642;50.830;12.082;2023-05-20T07:55:43;4.45;;;3.75;;
11171;SDS011;5642;50.830;12.082;2023-05-20T07:58:09;4.57;;;4.10;;
11171;SDS011;5642;50.830;12.082;2023-05-20T08:00:35;4.10;;;3.70;;
11171;SDS011;5642;50.830;12.082;2023-05-20T08:03:01;3.60;;;3.30;;
11171;SDS011;5642;50.830;12.082;2023-05-20T08:05:28;4.10;;;3.70;;
11171;SDS011;5642;50.830;12.082;2023-05-20T08:07:54;4.07;;;3.67;;
11171;SDS011;5642;50.830;12.082;2023-05-20T08:10:20;4.07;;;3.67;;
11171;SDS011;5642;50.830;12.082;2023-05-20T08:12:46;4.00;;;3.60;;
11171;SDS011;5642;50.830;12.082;2023-05-20T09:13:39;2.80;;;2.60;;
11171;SDS011;5642;50.830;12.082;2023-05-20T09:16:08;2.97;;;2.78;;
11171;SDS011;5642;50.830;12.082;2023-05-20T09:18:37;2.75;;;2.55;;
11171;SDS011;5642;50.830;12.082;2023-05-20T09:21:04;2.80;;;2.60;;
11171;SDS011;5642;50.830;12.082;2023-05-20T09:23:31;2.78;;;2.58;;
11171;SDS011;5642;50.830;12.082;2023-05-20T09:25:59;2.85;;;2.65;;
11171;SDS011;5642;50.830;12.082;2023-05-20T09:28:27;2.58;;;2.38;;
11171;SDS011;5642;50.830;12.082;2023-05-20T09:30:59;2.67;;;2.47;;
11171;SDS011;5642;50.830;12.082;2023-05-20T09:33:28;2.47;;;2.28;;
11171;SDS011;5642;50.830;12.082;2023-05-20T09:36:01;2.90;;;2.70;;
11171;SDS011;5642;50.830;12.082;2023-05-20T09:38:35;2.65;;;2.45;;
11171;SDS011;5642;50.830;12.082;2023-05-20T09:41:07;2.60;;;2.40;;
11171;SDS011;5642;50.830;12.082;2023-05-20T09:43:37;2.85;;;2.65;;
11171;SDS011;5642;50.830;12.082;2023-05-20T09:46:12;2.50;;;2.30;;
11171;SDS011;5642;50.830;12.082;2023-05-20T09:48:40;2.60;;;2.40;;
11171;SDS011;5642;50.830;12.082;2023-05-20T09:51:10;2.80;;;2.60;;
11171;SDS011;5642;50.830;12.082;2023-05-20T09:53:38;2.78;;;2.58;;
11171;SDS011;5642;50.830;12.082;2023-05-20T09:56:06;2.72;;;2.55;;
11171;SDS011;5642;50.830;12.082;2023-05-20T09:58:32;2.67;;;2.47;;
11171;SDS011;5642;50.830;12.082;2023-05-20T10:01:00;2.80;;;2.60;;
11171;SDS011;5642;50.830;12.082;2023-05-20T10:03:26;3.00;;;2.80;;
11171;SDS011;5642;50.830;12.082;2023-05-20T10:11:36;3.60;;;3.25;;
11171;SDS011;5642;50.830;12.082;2023-05-20T11:15:30;3.50;;;3.20;;
11171;SDS011;5642;50.830;12.082;2023-05-20T11:17:59;3.92;;;3.63;;
11171;SDS011;5642;50.830;12.082;2023-05-20T11:20:27;4.07;;;3.72;;
11171;SDS011;5642;50.830;12.082;2023-05-20T11:22:53;3.85;;;3.55;;
11171;SDS011;5642;50.830;12.082;2023-05-20T11:25:20;4.15;;;3.78;;
11171;SDS011;5642;50.830;12.082;2023-05-20T11:27:50;3.80;;;3.50;;
11171;SDS011;5642;50.830;12.082;2023-05-20T11:30:19;3.67;;;3.38;;
11171;SDS011;5642;50.830;12.082;2023-05-20T11:32:56;3.78;;;3.47;;
11171;SDS011;5642;50.830;12.082;2023-05-20T11:35:24;4.30;;;4.00;;
11171;SDS011;5642;50.830;12.082;2023-05-20T11:38:01;4.28;;;3.88;;
11171;SDS011;5642;50.830;12.082;2023-05-20T11:40:30;4.22;;;3.83;;
11171;SDS011;5642;50.830;12.082;2023-05-20T11:42:58;4.68;;;4.20;;
11171;SDS011;5642;50.830;12.082;2023-05-20T11:45:25;4.28;;;3.97;;
11171;SDS011;5642;50.830;12.082;2023-05-20T11:48:02;3.92;;;3.63;;
11171;SDS011;5642;50.830;12.082;2023-05-20T11:50:33;4.47;;;3.92;;
11171;SDS011;5642;50.830;12.082;2023-05-20T11:53:09;4.13;;;3.72;;
11171;SDS011;5642;50.830;12.082;2023-05-20T11:55:48;4.50;;;4.03;;
11171;SDS011;5642;50.830;12.082;2023-05-20T11:58:18;3.92;;;3.63;;
11171;SDS011;5642;50.830;12.082;2023-05-20T12:00:45;4.20;;;3.90;;
11171;SDS011;5642;50.830;12.082;2023-05-20T12:03:12;4.47;;;4.07;;
11171;SDS011;5642;50.830;12.082;2023-05-20T12:05:38;4.65;;;4.28;;
11171;SDS011;5642;50.830;12.082;2023-05-20T12:08:05;4.07;;;3.78;;
11171;SDS011;5642;50.830;12.082;2023-05-20T12:10:31;4.47;;;4.07;;
11171;SDS011;5642;50.830;12.082;2023-05-20T12:12:59;4.65;;;4.25;;
11171;SDS011;5642;50.830;12.082;2023-05-20T14:18:11;4.07;;;3.60;;
11171;SDS011;5642;50.830;12.082;2023-05-20T14:20:37;4.53;;;4.13;;
11171;SDS011;5642;50.830;12.082;2023-05-20T14:23:03;4.25;;;3.92;;
11171;SDS011;5642;50.830;12.082;2023-05-20T14:25:29;4.55;;;3.80;;
11171;SDS011;5642;50.830;12.082;2023-05-20T14:27:55;6.25;;;4.10;;
11171;SDS011;5642;50.830;12.082;2023-05-20T14:30:21;4.88;;;4.43;;
11171;SDS011;5642;50.830;12.082;2023-05-20T14:32:50;4.78;;;4.38;;
11171;SDS011;5642;50.830;12.082;2023-05-20T14:35:16;5.10;;;4.60;;
11171;SDS011;5642;50.830;12.082;2023-05-20T14:37:43;6.45;;;4.80;;
11171;SDS011;5642;50.830;12.082;2023-05-20T14:40:09;4.80;;;4.30;;
11171;SDS011;5642;50.830;12.082;2023-05-20T14:42:36;4.28;;;3.97;;
11171;SDS011;5642;50.830;12.082;2023-05-20T14:45:05;5.38;;;4.50;;
11171;SDS011;5642;50.830;12.082;2023-05-20T14:47:32;4.90;;;4.50;;
11171;SDS011;5642;50.830;12.082;2023-05-20T14:49:58;5.00;;;4.60;;
11171;SDS011;5642;50.830;12.082;2023-05-20T14:52:25;5.18;;;4.47;;
11171;SDS011;5642;50.830;12.082;2023-05-20T14:54:51;5.07;;;4.68;;
11171;SDS011;5642;50.830;12.082;2023-05-20T14:57:17;5.10;;;4.60;;
11171;SDS011;5642;50.830;12.082;2023-05-20T14:59:44;5.38;;;4.85;;
11171;SDS011;5642;50.830;12.082;2023-05-20T15:02:10;4.57;;;4.18;;
11171;SDS011;5642;50.830;12.082;2023-05-20T15:04:37;4.25;;;3.92;;
11171;SDS011;5642;50.830;12.082;2023-05-20T15:07:04;4.38;;;4.03;;
11171;SDS011;5642;50.830;12.082;2023-05-20T15:09:30;4.88;;;4.47;;
11171;SDS011;5642;50.830;12.082;2023-05-20T15:11:56;4.82;;;4.43;;
11171;SDS011;5642;50.830;12.082;2023-05-20T15:14:22;4.57;;;4.20;;
11171;SDS011;5642;50.830;12.082;2023-05-20T15:16:48;4.45;;;4.05;;
11171;SDS011;5642;50.830;12.082;2023-05-20T15:19:15;4.28;;;3.88;;
11171;SDS011;5642;50.830;12.082;2023-05-20T15:21:41;4.03;;;3.72;;
11171;SDS011;5642;50.830;12.082;2023-05-20T15:24:07;4.35;;;4.05;;
11171;SDS011;5642;50.830;12.082;2023-05-20T15:26:34;4.60;;;4.20;;
11171;SDS011;5642;50.830;12.082;2023-05-20T15:29:06;4.38;;;4.05;;
11171;SDS011;5642;50.830;12.082;2023-05-20T15:31:32;5.25;;;4.43;;
11171;SDS011;5642;50.830;12.082;2023-05-20T15:33:58;4.43;;;4.05;;
11171;SDS011;5642;50.830;12.082;2023-05-20T15:36:25;4.20;;;3.90;;
11171;SDS011;5642;50.830;12.082;2023-05-20T15:38:51;4.45;;;4.05;;
11171;SDS011;5642;50.830;12.082;2023-05-20T15:41:17;4.35;;;3.95;;
11171;SDS011;5642;50.830;12.082;2023-05-20T15:43:43;4.72;;;4.32;;
11171;SDS011;5642;50.830;12.082;2023-05-20T15:46:10;4.15;;;3.75;;
11171;SDS011;5642;50.830;12.082;2023-05-20T15:48:36;4.43;;;4.03;;
11171;SDS011;5642;50.830;12.082;2023-05-20T15:51:03;3.95;;;3.65;;
11171;SDS011;5642;50.830;12.082;2023-05-20T15:53:31;4.05;;;3.75;;
11171;SDS011;5642;50.830;12.082;2023-05-20T15:55:58;4.47;;;4.10;;
11171;SDS011;5642;50.830;12.082;2023-05-20T15:58:24;4.20;;;3.80;;
11171;SDS011;5642;50.830;12.082;2023-05-20T16:00:52;4.00;;;3.70;;
11171;SDS011;5642;50.830;12.082;2023-05-20T16:03:20;4.30;;;3.95;;
11171;SDS011;5642;50.830;12.082;2023-05-20T16:05:50;4.10;;;3.80;;
11171;SDS011;5642;50.830;12.082;2023-05-20T16:08:17;3.78;;;3.47;;
11171;SDS011;5642;50.830;12.082;2023-05-20T16:10:46;4.15;;;3.75;;
11171;SDS011;5642;50.830;12.082;2023-05-20T16:13:30;4.35;;;3.95;;
11171;SDS011;5642;50.830;12.082;2023-05-20T21:17:08;5.55;;;5.05;;
11171;SDS011;5642;50.830;12.082;2023-05-20T21:19:34;6.03;;;5.47;;
11171;SDS011;5642;50.830;12.082;2023-05-20T21:22:02;6.03;;;5.45;;
11171;SDS011;5642;50.830;12.082;2023-05-20T21:24:28;6.88;;;5.68;;
11171;SDS011;5642;50.830;12.082;2023-05-20T21:26:54;6.15;;;5.55;;
11171;SDS011;5642;50.830;12.082;2023-05-20T21:29:20;5.80;;;5.22;;
11171;SDS011;5642;50.830;12.082;2023-05-20T21:31:53;6.20;;;5.60;;
11171;SDS011;5642;50.830;12.082;2023-05-20T21:34:19;6.93;;;6.22;;
11171;SDS011;5642;50.830;12.082;2023-05-20T21:36:45;11.00;;;6.70;;
11171;SDS011;5642;50.830;12.082;2023-05-20T21:39:11;7.43;;;6.40;;
11171;SDS011;5642;50.830;12.082;2023-05-20T21:41:37;6.82;;;6.22;;
11171;SDS011;5642;50.830;12.082;2023-05-20T21:44:18;7.25;;;6.55;;
11171;SDS011;5642;50.830;12.082;2023-05-20T21:46:44;7.13;;;6.15;;
11171;SDS011;5642;50.830;12.082;2023-05-20T21:49:10;6.13;;;5.43;;
11171;SDS011;5642;50.830;12.082;2023-05-20T21:51:36;6.35;;;5.75;;
11171;SDS011;5642;50.830;12.082;2023-05-20T21:54:08;6.80;;;5.85;;
11171;SDS011;5642;50.830;12.082;2023-05-20T21:56:34;6.18;;;5.60;;
11171;SDS011;5642;50.830;12.082;2023-05-20T21:59:00;5.40;;;4.90;;
11171;SDS011;5642;50.830;12.082;2023-05-20T22:01:26;6.53;;;5.70;;
11171;SDS011;5642;50.830;12.082;2023-05-20T22:03:53;5.80;;;5.20;;
11171;SDS011;5642;50.830;12.082;2023-05-20T22:06:21;6.30;;;5.70;;
11171;SDS011;5642;50.830;12.082;2023-05-20T22:08:48;5.93;;;5.32;;
11171;SDS011;5642;50.830;12.082;2023-05-20T22:11:14;5.22;;;4.82;;
11171;SDS011;5642;50.830;12.082;2023-05-20T22:13:41;5.50;;;5.00;;
11171;SDS011;5642;50.830;12.082;2023-05-20T22:16:07;5.80;;;5.20;;
